This is the latest recevied weather packets stored in our database for station/object Hoechsten. If no packets are shown the sender has not sent any weather packets the latest 10 day(s).
| Time | Temp. | Humidity | Pressure | Rain* | Wind** | Luminosity | Snow |
|---|---|---|---|---|---|---|---|
| 1777915929 | 17.22° C | 46% | 1008.6 hPa | 0 mm | - | - | - |
| 1777914130 | 18.33° C | 44% | 1008.3 hPa | 0 mm | - | - | - |
| 1777912332 | 18.33° C | 41% | 1008.1 hPa | 0 mm | - | - | - |
| 1777910530 | 18.89° C | 41% | 1008 hPa | 0 mm | - | - | - |
| 1777908732 | 19.44° C | 40% | 1007.9 hPa | 0 mm | - | - | - |
| 1777906930 | 19.44° C | 40% | 1007.8 hPa | 0 mm | - | - | - |
| 1777905129 | 20° C | 38% | 1007.9 hPa | 0 mm | - | - | - |
| 1777903330 | 20.56° C | 38% | 1008.1 hPa | 0 mm | - | - | - |
| 1777901532 | 20.56° C | 37% | 1008.2 hPa | 0 mm | - | - | - |
| 1777899735 | 21.11° C | 36% | 1008.5 hPa | 0 mm | - | - | - |
| 1777897935 | 21.11° C | 41% | 1008.6 hPa | 0 mm | - | - | - |
| 1777896130 | 19.44° C | 45% | 1008.8 hPa | 0 mm | - | - | - |
| 1777894331 | 18.33° C | 49% | 1009 hPa | 0 mm | - | - | - |
| 1777892530 | 17.78° C | 51% | 1009.2 hPa | 0 mm | - | - | - |
| 1777890735 | 17.78° C | 51% | 1009.6 hPa | 0 mm | - | - | - |
| 1777888932 | 17.78° C | 50% | 1009.7 hPa | 0 mm | - | - | - |
| 1777887130 | 16.67° C | 52% | 1010.1 hPa | 0 mm | - | - | - |
| 1777885331 | 16.67° C | 52% | 1010.2 hPa | 0 mm | - | - | - |
| 1777883533 | 16.67° C | 51% | 1010.3 hPa | 0 mm | - | - | - |
| 1777881731 | 16.67° C | 55% | 1010.6 hPa | 0 mm | - | - | - |
| 1777879930 | 15.56° C | 53% | 1010.6 hPa | 0 mm | - | - | - |
| 1777878132 | 15.56° C | 55% | 1010.6 hPa | 0 mm | - | - | - |
| 1777876331 | 15° C | 55% | 1010.6 hPa | 0 mm | - | - | - |
| 1777874532 | 13.89° C | 57% | 1010.7 hPa | 0 mm | - | - | - |
| 1777872731 | 13.33° C | 59% | 1010.5 hPa | 0 mm | - | - | - |
* Rain since midnight (hover to see other rain measurements)
** Current wind speed in m/s (hover to see current wind gust speed)